Time;durP1;ratioP1;P1;durP2;ratioP2;P2;SDS_P1;SDS_P2;PMS_P1;PMS_P2;Temp;Humidity;BMP_temperature;BMP_pressure;BME280_temperature;BME280_humidity;BME280_pressure;Samples;Min_cycle;Max_cycle;Signal;HPM_P1;HPM_P2
2021/04/12 00:01:57;;;;;;;2.90;2.70;;;11.30;59.90;;;;;;5025982;28;20478;-44
2021/04/12 00:04:26;;;;;;;2.93;2.57;;;11.20;59.50;;;;;;5020525;28;20779;-44
2021/04/12 00:06:59;;;;;;;3.17;2.60;;;11.10;59.80;;;;;;5021406;28;20826;-43
2021/04/12 00:09:49;;;;;;;3.13;2.93;;;11.10;60.00;;;;;;5025420;28;20460;-43
2021/04/12 00:12:28;;;;;;;2.90;2.70;;;11.00;59.90;;;;;;5030067;28;20906;-43
2021/04/12 00:14:58;;;;;;;3.13;2.93;;;11.00;60.50;;;;;;5026218;28;20452;-43
2021/04/12 00:17:40;;;;;;;2.43;2.30;;;10.90;60.90;;;;;;5021280;28;20472;-44
2021/04/12 00:20:09;;;;;;;2.90;2.70;;;10.80;60.50;;;;;;5028768;28;20452;-45
2021/04/12 00:22:47;;;;;;;3.20;3.00;;;10.90;60.70;;;;;;5022078;28;20859;-42
2021/04/12 00:25:37;;;;;;;2.80;2.60;;;11.00;60.10;;;;;;5027720;28;20439;-43
2021/04/12 00:28:12;;;;;;;2.80;2.60;;;10.80;60.80;;;;;;4982731;28;20449;-43
2021/04/12 00:30:48;;;;;;;3.60;3.30;;;10.80;60.70;;;;;;5023032;28;20443;-42
2021/04/12 00:33:27;;;;;;;2.40;2.30;;;10.80;60.40;;;;;;5016791;28;20838;-44
2021/04/12 00:36:00;;;;;;;2.70;2.50;;;10.80;61.00;;;;;;5025360;28;20441;-43
2021/04/12 00:38:53;;;;;;;3.10;2.90;;;10.70;60.70;;;;;;5031400;28;20436;-43
2021/04/12 00:41:43;;;;;;;2.43;2.33;;;10.70;60.90;;;;;;5012698;28;20849;-43
2021/04/12 00:44:08;;;;;;;2.20;2.10;;;10.70;60.10;;;;;;5029915;28;20447;-43
2021/04/12 00:46:57;;;;;;;2.33;2.13;;;10.60;59.40;;;;;;5028525;28;21009;-44
2021/04/12 00:49:42;;;;;;;2.40;2.20;;;10.80;59.50;;;;;;5026578;28;20194;-43
2021/04/12 00:52:33;;;;;;;2.17;2.07;;;10.70;59.20;;;;;;5021283;28;20557;-43
2021/04/12 00:55:17;;;;;;;2.27;2.17;;;10.80;59.40;;;;;;5025030;28;20452;-43
2021/04/12 00:58:06;;;;;;;3.27;2.97;;;10.80;59.20;;;;;;5026119;28;20440;-44
2021/04/12 01:00:35;;;;;;;3.40;3.20;;;10.80;59.00;;;;;;5014323;28;20827;-43
2021/04/12 01:03:16;;;;;;;2.93;2.70;;;10.90;58.90;;;;;;5023844;28;20444;-43
2021/04/12 01:05:41;;;;;;;3.50;3.20;;;10.90;58.90;;;;;;5015477;28;20449;-43
2021/04/12 01:08:44;;;;;;;2.80;2.60;;;10.90;59.20;;;;;;5021453;28;20447;-43
2021/04/12 01:11:09;;;;;;;2.87;2.67;;;11.00;59.50;;;;;;5025177;28;22130;-43
2021/04/12 01:14:12;;;;;;;3.60;3.30;;;10.80;58.40;;;;;;5023503;28;20467;-43
2021/04/12 01:16:48;;;;;;;3.37;2.87;;;10.80;58.90;;;;;;5025411;28;20197;-43
2021/04/12 01:19:51;;;;;;;3.43;2.97;;;10.80;58.90;;;;;;5021328;28;20533;-43
2021/04/12 01:22:58;;;;;;;3.40;3.10;;;10.70;58.60;;;;;;5025567;28;20523;-44
2021/04/12 01:25:30;;;;;;;3.27;3.00;;;10.70;58.60;;;;;;5027216;28;20865;-43
2021/04/12 01:28:20;;;;;;;3.17;2.87;;;10.70;58.50;;;;;;5022840;28;20448;-43
2021/04/12 01:31:23;;;;;;;2.80;2.60;;;10.70;58.80;;;;;;5021009;28;20444;-42
2021/04/12 01:34:22;;;;;;;3.23;2.90;;;10.70;59.10;;;;;;5022460;28;20550;-43
2021/04/12 01:37:06;;;;;;;3.77;3.47;;;10.70;59.50;;;;;;5019767;28;20498;-42
2021/04/12 01:40:13;;;;;;;3.10;2.87;;;10.60;59.10;;;;;;5023048;28;20445;-43
2021/04/12 01:43:00;;;;;;;3.10;2.90;;;10.40;58.70;;;;;;5018205;28;20444;-45
2021/04/12 01:46:02;;;;;;;3.63;3.33;;;10.40;58.90;;;;;;5023944;28;20844;-42
2021/04/12 01:48:39;;;;;;;3.13;2.93;;;10.40;58.50;;;;;;5023643;28;20459;-43
2021/04/12 01:51:19;;;;;;;3.40;3.10;;;10.40;58.30;;;;;;5018359;28;21277;-43
2021/04/12 01:54:16;;;;;;;3.13;2.93;;;10.40;58.50;;;;;;5025048;28;20590;-43
2021/04/12 01:57:00;;;;;;;3.07;2.87;;;10.30;58.80;;;;;;5023580;28;20443;-43
2021/04/12 01:59:54;;;;;;;3.30;3.10;;;10.20;59.20;;;;;;5023053;28;20455;-44
2021/04/12 02:03:01;;;;;;;3.23;3.00;;;10.30;59.00;;;;;;5026900;28;20457;-43
2021/04/12 02:05:51;;;;;;;3.67;3.33;;;10.30;59.30;;;;;;5013151;28;20451;-43
2021/04/12 02:08:19;;;;;;;3.30;3.00;;;10.30;59.40;;;;;;5025901;28;20439;-44
2021/04/12 02:11:22;;;;;;;3.83;3.43;;;10.40;59.30;;;;;;5023223;28;20488;-43
2021/04/12 02:14:09;;;;;;;3.90;3.53;;;10.30;58.90;;;;;;5028757;28;20795;-43
2021/04/12 02:17:06;;;;;;;3.67;3.27;;;10.20;58.60;;;;;;5027878;28;20454;-43
2021/04/12 02:19:56;;;;;;;4.57;4.17;;;10.10;58.80;;;;;;5029983;28;20489;-42
2021/04/12 02:22:48;;;;;;;4.83;4.17;;;10.00;59.00;;;;;;5028221;28;20973;-43
2021/04/12 02:25:39;;;;;;;3.57;3.10;;;10.00;59.10;;;;;;5032864;28;20456;-42
2021/04/12 02:28:33;;;;;;;4.63;4.23;;;10.00;59.10;;;;;;5030162;28;21182;-42
2021/04/12 02:31:05;;;;;;;3.80;3.50;;;9.90;60.50;;;;;;5030907;28;20896;-42
2021/04/12 02:33:42;;;;;;;3.97;3.67;;;10.00;59.50;;;;;;5030537;28;20448;-42
2021/04/12 02:36:32;;;;;;;3.63;3.33;;;10.00;59.20;;;;;;5024330;28;20443;-42
2021/04/12 02:39:35;;;;;;;3.93;3.63;;;9.90;60.10;;;;;;5031206;28;20463;-43
2021/04/12 02:42:22;;;;;;;3.97;3.67;;;9.80;59.90;;;;;;4996354;28;20499;-42
2021/04/12 02:45:08;;;;;;;4.23;3.87;;;9.80;60.00;;;;;;5024384;28;20444;-43
2021/04/12 02:48:18;;;;;;;4.17;3.77;;;9.70;60.10;;;;;;5030634;28;20439;-44
2021/04/12 02:50:51;;;;;;;3.43;3.20;;;9.60;59.80;;;;;;5032422;28;20517;-43
2021/04/12 02:53:25;;;;;;;4.03;3.50;;;9.60;60.40;;;;;;5030563;28;20977;-43
2021/04/12 02:56:28;;;;;;;4.30;3.90;;;9.60;60.00;;;;;;5028426;28;20446;-43
2021/04/12 02:59:03;;;;;;;4.43;4.13;;;9.60;60.60;;;;;;5024705;28;20870;-43
2021/04/12 03:02:06;;;;;;;4.40;4.00;;;9.60;60.40;;;;;;5026120;28;20509;-43
2021/04/12 03:04:59;;;;;;;4.13;3.83;;;9.70;60.30;;;;;;5032570;28;20463;-44
2021/04/12 03:07:56;;;;;;;4.20;3.83;;;9.70;59.90;;;;;;5025912;28;20892;-42
2021/04/12 03:10:58;;;;;;;4.47;4.07;;;9.60;60.40;;;;;;5023117;28;20805;-43
2021/04/12 03:13:52;;;;;;;4.40;4.00;;;9.80;60.20;;;;;;5000150;28;20467;-45
2021/04/12 03:16:36;;;;;;;4.23;3.90;;;9.80;60.40;;;;;;5027543;28;20444;-42
2021/04/12 03:19:37;;;;;;;4.57;4.17;;;9.80;59.70;;;;;;5023595;28;21009;-43
2021/04/12 03:22:17;;;;;;;3.90;3.60;;;9.70;59.60;;;;;;4975853;28;20913;-42
2021/04/12 03:25:01;;;;;;;4.70;4.30;;;9.60;59.40;;;;;;5030720;28;20456;-42
2021/04/12 03:28:17;;;;;;;5.27;4.87;;;9.60;59.90;;;;;;5027074;28;20937;-43
2021/04/12 03:30:58;;;;;;;4.97;3.87;;;9.60;60.10;;;;;;4961139;28;20466;-42
2021/04/12 03:33:53;;;;;;;4.90;4.50;;;9.60;60.00;;;;;;4964478;28;20491;-42
2021/04/12 03:36:22;;;;;;;5.53;5.03;;;9.40;60.80;;;;;;5013279;28;20867;-43
2021/04/12 03:39:00;;;;;;;5.20;4.70;;;9.30;60.70;;;;;;5026643;28;20498;-42
2021/04/12 03:41:42;;;;;;;5.70;4.60;;;9.30;61.90;;;;;;5026808;28;20458;-42
2021/04/12 03:44:45;;;;;;;5.47;4.97;;;9.40;61.40;;;;;;5021944;28;20448;-42
2021/04/12 03:47:19;;;;;;;4.53;4.13;;;9.30;61.20;;;;;;5026971;28;20475;-42
2021/04/12 03:49:57;;;;;;;5.20;4.70;;;9.40;61.50;;;;;;5028370;28;20443;-42
2021/04/12 03:52:36;;;;;;;5.37;4.83;;;9.40;61.40;;;;;;5018105;28;20538;-43
2021/04/12 03:55:18;;;;;;;8.50;3.90;;;9.30;61.00;;;;;;5023953;28;20448;-42
2021/04/12 03:58:25;;;;;;;5.00;4.60;;;9.40;61.10;;;;;;5028161;28;20462;-43
2021/04/12 04:01:00;;;;;;;5.10;4.30;;;9.50;60.30;;;;;;5012063;28;20459;-42
2021/04/12 04:03:38;;;;;;;5.10;4.60;;;9.30;60.70;;;;;;5026528;28;20452;-43
2021/04/12 04:06:18;;;;;;;4.90;4.50;;;9.20;60.60;;;;;;5024193;28;20439;-44
2021/04/12 04:09:35;;;;;;;5.30;4.67;;;9.10;61.60;;;;;;5023388;28;20452;-42
2021/04/12 04:12:26;;;;;;;4.50;4.10;;;9.00;61.90;;;;;;4990996;28;20499;-42
2021/04/12 04:15:22;;;;;;;4.37;4.07;;;9.10;62.20;;;;;;5026172;28;20440;-43
2021/04/12 04:18:13;;;;;;;4.53;4.13;;;9.10;62.10;;;;;;4992147;28;20566;-43
2021/04/12 04:21:21;;;;;;;6.43;4.30;;;9.10;61.50;;;;;;5024850;28;20549;-42
2021/04/12 04:24:09;;;;;;;5.67;4.70;;;9.10;61.60;;;;;;5026183;28;20448;-43
2021/04/12 04:26:59;;;;;;;6.23;4.90;;;9.00;62.00;;;;;;5025632;28;20448;-42
2021/04/12 04:29:30;;;;;;;4.40;4.00;;;9.00;62.10;;;;;;5027405;28;20551;-42
2021/04/12 04:32:23;;;;;;;5.37;4.87;;;8.90;62.30;;;;;;5023245;28;20978;-43
2021/04/12 04:35:31;;;;;;;5.13;4.63;;;9.00;62.10;;;;;;5023414;28;20440;-42
2021/04/12 04:38:30;;;;;;;5.00;4.50;;;9.10;61.90;;;;;;5024296;28;20530;-43
2021/04/12 04:41:20;;;;;;;4.20;3.80;;;9.10;61.60;;;;;;5027873;28;20463;-43
2021/04/12 04:44:07;;;;;;;4.73;4.33;;;9.10;61.70;;;;;;5025712;28;20490;-42
2021/04/12 04:46:52;;;;;;;4.73;4.23;;;9.30;61.20;;;;;;5026328;28;20447;-41
2021/04/12 04:49:31;;;;;;;5.87;5.30;;;9.20;60.90;;;;;;5025247;28;20451;-42
2021/04/12 04:52:38;;;;;;;5.17;4.73;;;9.30;61.50;;;;;;5026745;28;20532;-41
2021/04/12 04:55:22;;;;;;;5.60;4.43;;;9.10;62.00;;;;;;4987974;28;20482;-41
2021/04/12 04:58:33;;;;;;;4.70;4.30;;;9.10;61.80;;;;;;5027692;28;20466;-42
2021/04/12 05:01:05;;;;;;;5.30;4.83;;;9.30;61.10;;;;;;4993347;28;20476;-41
2021/04/12 05:03:49;;;;;;;7.60;6.90;;;9.30;60.50;;;;;;5022654;28;20478;-41
2021/04/12 05:06:29;;;;;;;6.10;5.27;;;9.00;60.40;;;;;;5021142;28;20451;-41
2021/04/12 05:09:09;;;;;;;6.23;5.33;;;9.10;60.90;;;;;;5027874;28;20443;-41
2021/04/12 05:11:47;;;;;;;6.63;5.90;;;9.00;61.60;;;;;;5026221;28;20879;-41
2021/04/12 05:14:41;;;;;;;6.33;5.73;;;9.10;61.80;;;;;;5022072;28;20485;-41
2021/04/12 05:17:21;;;;;;;5.60;5.10;;;9.20;61.20;;;;;;5014327;28;20816;-41
2021/04/12 05:20:25;;;;;;;6.67;5.57;;;9.30;61.10;;;;;;5022336;28;20443;-41
2021/04/12 05:23:37;;;;;;;6.40;5.50;;;9.30;60.80;;;;;;4983052;28;20951;-41
2021/04/12 05:26:15;;;;;;;6.03;5.47;;;9.40;61.00;;;;;;5014986;28;20442;-41
2021/04/12 05:29:06;;;;;;;6.60;5.90;;;9.60;60.50;;;;;;5019681;28;20447;-41
2021/04/12 05:31:51;;;;;;;6.47;5.37;;;9.70;60.00;;;;;;5027678;28;20538;-41
2021/04/12 05:34:55;;;;;;;6.40;5.63;;;9.60;59.80;;;;;;5030343;28;20435;-42
2021/04/12 05:37:37;;;;;;;5.83;5.23;;;9.60;60.10;;;;;;5021565;28;20476;-41
2021/04/12 05:40:46;;;;;;;7.73;5.93;;;9.40;60.00;;;;;;5016291;28;20464;-41
2021/04/12 05:43:15;;;;;;;9.00;6.07;;;9.30;61.00;;;;;;5024937;28;20449;-41
2021/04/12 05:45:58;;;;;;;6.00;5.40;;;9.30;61.00;;;;;;5011902;28;20811;-41
2021/04/12 05:48:49;;;;;;;8.87;6.50;;;9.30;60.90;;;;;;5024337;28;20880;-41
2021/04/12 05:51:20;;;;;;;6.37;5.77;;;9.30;60.90;;;;;;5027706;28;20486;-41
2021/04/12 05:54:04;;;;;;;5.80;5.30;;;9.30;61.40;;;;;;5026064;28;20430;-41
2021/04/12 05:57:00;;;;;;;7.20;6.60;;;9.50;61.00;;;;;;5025657;28;20448;-41
2021/04/12 05:59:42;;;;;;;5.93;5.10;;;9.60;60.90;;;;;;5012831;28;20445;-41
2021/04/12 06:02:32;;;;;;;5.60;5.10;;;9.70;60.50;;;;;;5028117;28;20483;-42
2021/04/12 06:05:02;;;;;;;6.70;6.10;;;9.90;60.00;;;;;;5029128;28;20486;-41
2021/04/12 06:08:05;;;;;;;6.07;5.57;;;10.00;58.30;;;;;;5026512;28;20836;-42
2021/04/12 06:10:45;;;;;;;7.47;5.40;;;10.10;58.20;;;;;;5019980;28;20817;-42
2021/04/12 06:13:48;;;;;;;6.50;5.90;;;10.10;58.40;;;;;;5022541;28;20522;-41
2021/04/12 06:16:32;;;;;;;6.20;5.60;;;10.00;58.00;;;;;;5021337;28;20454;-41
2021/04/12 06:19:35;;;;;;;6.13;5.60;;;10.00;58.40;;;;;;5015394;28;20994;-42
2021/04/12 06:22:09;;;;;;;6.13;5.53;;;10.10;58.40;;;;;;5012723;28;20808;-42
2021/04/12 06:25:19;;;;;;;5.63;5.13;;;10.00;58.00;;;;;;5026792;28;20435;-41
2021/04/12 06:28:06;;;;;;;6.20;5.53;;;9.80;59.00;;;;;;4958981;28;20452;-42
2021/04/12 06:31:03;;;;;;;6.63;5.93;;;9.70;59.10;;;;;;5022314;28;20531;-41
2021/04/12 06:34:05;;;;;;;7.80;5.50;;;9.80;59.60;;;;;;5029018;28;20479;-41
2021/04/12 06:36:58;;;;;;;7.90;5.70;;;9.90;59.40;;;;;;5019113;28;20555;-41
2021/04/12 06:39:48;;;;;;;6.47;5.87;;;9.80;59.40;;;;;;5027115;28;20805;-42
2021/04/12 06:42:51;;;;;;;8.80;7.90;;;10.00;59.30;;;;;;5020301;28;20444;-41
2021/04/12 06:45:52;;;;;;;7.53;6.57;;;10.20;58.40;;;;;;5029836;28;20951;-42
2021/04/12 06:48:37;;;;;;;7.53;6.73;;;10.30;58.10;;;;;;5022815;28;20811;-42
2021/04/12 06:51:42;;;;;;;6.23;5.63;;;10.50;57.80;;;;;;5025126;28;20966;-42
2021/04/12 06:54:32;;;;;;;8.50;6.47;;;10.50;57.60;;;;;;5019053;28;20478;-42
2021/04/12 06:57:04;;;;;;;7.83;7.13;;;10.60;57.50;;;;;;5026571;28;20475;-42
2021/04/12 06:59:41;;;;;;;6.83;6.17;;;10.60;57.30;;;;;;5025177;28;20507;-41
2021/04/12 07:02:28;;;;;;;8.83;6.67;;;10.70;57.30;;;;;;5015321;28;20452;-41
2021/04/12 07:05:18;;;;;;;7.50;5.53;;;10.80;57.50;;;;;;5033059;28;20440;-42
2021/04/12 07:08:32;;;;;;;6.67;6.13;;;10.80;58.90;;;;;;5025089;28;20440;-42
2021/04/12 07:11:12;;;;;;;4.23;3.83;;;11.30;59.40;;;;;;5021831;28;20441;-42
2021/04/12 07:14:02;;;;;;;4.40;4.03;;;11.80;58.10;;;;;;5034495;28;20435;-42
2021/04/12 07:16:49;;;;;;;5.70;5.20;;;12.20;57.60;;;;;;5031516;28;20810;-42
2021/04/12 07:19:51;;;;;;;7.20;4.90;;;12.70;56.90;;;;;;5031722;28;20571;-41
2021/04/12 07:22:51;;;;;;;7.80;6.50;;;12.80;55.60;;;;;;5028159;28;20444;-42
2021/04/12 07:25:38;;;;;;;6.27;5.67;;;13.30;54.40;;;;;;5022392;28;20447;-42
2021/04/12 07:28:31;;;;;;;8.37;5.70;;;13.20;54.00;;;;;;5026658;28;20814;-41
2021/04/12 07:31:34;;;;;;;6.47;5.80;;;13.50;54.10;;;;;;5019948;28;20500;-42
2021/04/12 07:34:37;;;;;;;5.93;5.40;;;13.70;52.50;;;;;;5017516;28;20471;-41
2021/04/12 07:37:33;;;;;;;8.50;6.63;;;13.70;51.50;;;;;;5017770;28;20443;-42
2021/04/12 07:40:17;;;;;;;8.00;7.30;;;13.70;52.00;;;;;;5017534;28;20811;-42
2021/04/12 07:42:55;;;;;;;8.00;7.20;;;13.60;50.40;;;;;;5020059;28;20439;-42
2021/04/12 07:45:55;;;;;;;10.30;8.30;;;13.30;50.90;;;;;;5017635;28;20515;-41
2021/04/12 07:48:35;;;;;;;9.80;8.50;;;13.10;51.00;;;;;;5018714;28;20447;-41
2021/04/12 07:51:29;;;;;;;9.87;7.80;;;12.70;51.70;;;;;;5027635;28;20451;-41
2021/04/12 07:54:11;;;;;;;10.10;9.10;;;12.20;52.60;;;;;;5023963;28;21018;-42
2021/04/12 07:57:07;;;;;;;9.57;8.43;;;11.90;53.50;;;;;;5030661;28;20742;-42
2021/04/12 07:59:51;;;;;;;13.90;11.37;;;11.60;54.60;;;;;;5026764;28;20436;-42
2021/04/12 08:02:38;;;;;;;13.63;12.30;;;11.30;55.10;;;;;;5015633;28;20422;-42
2021/04/12 08:05:41;;;;;;;13.40;12.10;;;10.90;55.50;;;;;;5025512;28;20284;-42
2021/04/12 08:08:28;;;;;;;14.10;11.60;;;10.80;56.70;;;;;;5029134;28;20511;-42
2021/04/12 08:11:45;;;;;;;13.40;11.87;;;10.50;56.80;;;;;;5021933;28;20436;-41
2021/04/12 08:14:39;;;;;;;12.20;10.97;;;10.50;58.00;;;;;;5028725;28;20452;-41
2021/04/12 08:17:42;;;;;;;12.77;11.50;;;10.50;58.00;;;;;;5023357;28;20531;-42
2021/04/12 08:20:42;;;;;;;12.80;10.30;;;10.40;57.90;;;;;;5028034;28;20855;-43
2021/04/12 08:23:38;;;;;;;13.83;11.17;;;10.30;58.10;;;;;;5026554;28;20450;-42
2021/04/12 08:26:24;;;;;;;12.87;11.57;;;10.10;58.20;;;;;;5024709;28;20511;-44
2021/04/12 08:29:20;;;;;;;13.10;11.47;;;10.20;58.40;;;;;;5028161;28;20444;-43
2021/04/12 08:32:04;;;;;;;12.33;10.67;;;10.40;58.60;;;;;;5023715;28;20485;-42
2021/04/12 08:34:58;;;;;;;11.73;10.53;;;10.30;57.70;;;;;;5026622;28;20447;-42
2021/04/12 08:37:48;;;;;;;13.00;10.70;;;10.20;58.20;;;;;;5017631;28;20432;-42
2021/04/12 08:40:51;;;;;;;11.63;10.47;;;10.30;58.40;;;;;;5023420;28;20483;-42
2021/04/12 08:43:35;;;;;;;12.50;11.00;;;10.40;57.50;;;;;;5022617;28;20436;-41
2021/04/12 08:46:42;;;;;;;13.57;11.37;;;10.40;58.00;;;;;;5019292;28;20432;-41
2021/04/12 08:49:35;;;;;;;11.83;10.67;;;10.50;58.30;;;;;;5003675;28;20963;-42
2021/04/12 08:52:19;;;;;;;12.57;10.60;;;10.40;57.60;;;;;;5024463;28;20496;-42
2021/04/12 08:55:20;;;;;;;13.67;11.50;;;10.40;58.00;;;;;;5017438;28;20555;-43
2021/04/12 08:58:30;;;;;;;14.93;11.73;;;10.50;58.60;;;;;;5027632;28;20449;-42
2021/04/12 09:01:27;;;;;;;11.17;10.00;;;10.50;57.70;;;;;;5021586;28;20524;-42
2021/04/12 09:03:58;;;;;;;14.93;11.80;;;10.60;57.50;;;;;;5020672;28;20945;-42
2021/04/12 09:06:57;;;;;;;12.30;9.90;;;10.80;58.20;;;;;;5028812;28;20448;-42
2021/04/12 09:09:37;;;;;;;11.23;10.03;;;10.90;56.40;;;;;;5042896;28;20427;-42
2021/04/12 09:12:45;;;;;;;11.23;9.83;;;11.10;56.70;;;;;;5037438;28;20501;-42
2021/04/12 09:15:51;;;;;;;11.37;10.23;;;11.30;56.80;;;;;;5031701;28;20447;-42
2021/04/12 09:18:57;;;;;;;10.93;9.30;;;11.30;56.10;;;;;;5031390;28;20533;-44
2021/04/12 09:21:49;;;;;;;9.33;8.43;;;11.40;55.60;;;;;;5028342;28;20467;-42
2021/04/12 09:24:46;;;;;;;9.40;8.50;;;11.40;54.50;;;;;;5029382;28;20950;-43
2021/04/12 09:27:27;;;;;;;10.00;9.00;;;11.20;54.90;;;;;;5025097;28;20444;-43
2021/04/12 09:30:16;;;;;;;11.03;9.90;;;11.10;54.30;;;;;;5030458;28;20454;-42
2021/04/12 09:32:44;;;;;;;9.40;8.50;;;11.30;54.80;;;;;;5021000;28;20993;-42
2021/04/12 09:35:16;;;;;;;9.60;8.60;;;11.30;54.40;;;;;;5031216;28;21209;-44
2021/04/12 09:38:06;;;;;;;10.73;9.47;;;11.20;54.10;;;;;;5026174;28;20515;-44
2021/04/12 09:41:19;;;;;;;10.63;8.50;;;11.30;54.50;;;;;;5035157;28;20860;-43
2021/04/12 09:44:25;;;;;;;8.80;7.90;;;11.50;54.50;;;;;;4957817;28;20810;-42
2021/04/12 09:47:24;;;;;;;9.33;8.53;;;11.60;54.20;;;;;;5025964;28;20442;-43
2021/04/12 09:50:11;;;;;;;12.33;8.50;;;11.70;53.50;;;;;;5033812;28;20518;-43
2021/04/12 09:52:45;;;;;;;8.53;7.67;;;11.70;52.90;;;;;;5025350;28;20566;-44
2021/04/12 09:55:19;;;;;;;8.30;7.50;;;11.60;52.40;;;;;;5020487;28;20452;-43
2021/04/12 09:58:16;;;;;;;8.90;8.10;;;11.40;52.60;;;;;;5030041;28;20440;-44
2021/04/12 10:01:21;;;;;;;8.87;7.90;;;11.40;53.10;;;;;;5029611;28;20463;-44
2021/04/12 10:04:36;;;;;;;8.53;7.70;;;11.30;52.70;;;;;;5024683;28;20796;-43
2021/04/12 10:07:52;;;;;;;8.70;7.40;;;11.20;52.00;;;;;;5024895;28;20445;-45
2021/04/12 10:10:23;;;;;;;8.27;7.47;;;11.00;52.40;;;;;;4997182;28;20471;-43
2021/04/12 10:13:12;;;;;;;11.33;7.13;;;11.10;53.20;;;;;;5020513;28;20543;-43
2021/04/12 10:16:13;;;;;;;9.70;7.17;;;11.30;52.30;;;;;;5023271;28;20539;-43
2021/04/12 10:18:59;;;;;;;7.30;6.60;;;11.20;50.80;;;;;;5015388;28;20517;-44
2021/04/12 10:22:02;;;;;;;9.20;7.10;;;11.10;50.80;;;;;;5030009;28;20435;-43
2021/04/12 10:24:47;;;;;;;7.30;6.60;;;11.20;50.30;;;;;;5028382;28;20445;-44
2021/04/12 10:27:40;;;;;;;6.87;6.17;;;11.30;51.70;;;;;;5013160;28;20490;-43
2021/04/12 10:30:19;;;;;;;7.90;6.60;;;11.40;50.30;;;;;;5022615;28;20805;-43
2021/04/12 10:32:53;;;;;;;7.10;5.97;;;11.60;49.40;;;;;;5029155;28;20488;-44
2021/04/12 10:35:26;;;;;;;7.97;6.07;;;11.60;48.90;;;;;;5028107;28;20440;-47
2021/04/12 10:38:04;;;;;;;7.13;6.43;;;11.80;49.20;;;;;;5026409;28;20853;-43
2021/04/12 10:40:38;;;;;;;7.00;6.33;;;11.80;49.20;;;;;;5025336;28;20535;-43
2021/04/12 10:43:19;;;;;;;5.83;5.30;;;11.90;48.30;;;;;;5020791;28;20494;-45
2021/04/12 10:45:51;;;;;;;6.93;5.43;;;11.90;48.00;;;;;;5037141;28;20446;-43
2021/04/12 10:48:54;;;;;;;5.70;5.20;;;11.90;47.20;;;;;;5022705;28;20904;-45
2021/04/12 10:51:36;;;;;;;6.97;5.33;;;11.80;46.60;;;;;;5013046;28;21002;-44
2021/04/12 10:54:43;;;;;;;6.33;5.83;;;11.50;46.80;;;;;;5028295;28;20542;-47
2021/04/12 10:57:09;;;;;;;7.03;5.57;;;11.60;48.10;;;;;;5032775;28;20530;-45
2021/04/12 11:00:03;;;;;;;5.97;5.37;;;11.80;48.30;;;;;;5029598;28;20583;-44
2021/04/12 11:02:52;;;;;;;5.77;5.27;;;11.80;47.80;;;;;;5022069;28;20247;-46
2021/04/12 11:05:23;;;;;;;6.00;5.40;;;11.80;47.20;;;;;;5022592;28;20444;-43
2021/04/12 11:07:48;;;;;;;7.03;5.47;;;11.90;46.80;;;;;;5017357;28;20516;-47
2021/04/12 11:10:37;;;;;;;5.87;5.37;;;11.80;47.30;;;;;;5032063;28;20480;-44
2021/04/12 11:13:38;;;;;;;6.13;5.53;;;11.70;47.70;;;;;;5032144;28;20283;-47
2021/04/12 11:16:13;;;;;;;5.17;4.77;;;12.00;47.30;;;;;;5026999;28;20451;-46
2021/04/12 11:19:04;;;;;;;5.50;5.00;;;12.10;46.00;;;;;;5023635;28;20510;-45
2021/04/12 11:22:05;;;;;;;6.10;5.17;;;12.30;46.90;;;;;;5019836;28;20570;-46
2021/04/12 11:25:06;;;;;;;4.80;4.37;;;12.20;45.40;;;;;;5032350;28;20440;-46
2021/04/12 11:28:08;;;;;;;6.37;5.87;;;12.20;43.90;;;;;;4973987;28;20541;-45
2021/04/12 11:31:02;;;;;;;5.30;4.80;;;11.90;44.50;;;;;;5023632;28;20460;-47
2021/04/12 11:33:54;;;;;;;6.17;4.67;;;11.80;46.40;;;;;;5029674;28;20444;-43
2021/04/12 11:36:53;;;;;;;5.13;4.73;;;12.00;46.00;;;;;;5026593;28;20607;-48
2021/04/12 11:39:24;;;;;;;5.43;5.03;;;12.20;45.30;;;;;;5035302;28;20443;-48
2021/04/12 11:42:03;;;;;;;4.80;4.40;;;12.40;45.50;;;;;;5037571;28;20448;-47
2021/04/12 11:44:39;;;;;;;5.70;5.20;;;12.30;45.10;;;;;;5037974;28;20443;-47
2021/04/12 11:47:39;;;;;;;4.90;4.50;;;12.40;45.70;;;;;;5042385;28;20447;-45
2021/04/12 11:50:14;;;;;;;5.27;4.63;;;12.30;43.50;;;;;;5037499;28;20505;-48
2021/04/12 11:52:54;;;;;;;6.03;4.53;;;12.40;45.10;;;;;;5040975;28;20486;-46
2021/04/12 11:55:29;;;;;;;6.20;5.03;;;12.50;45.60;;;;;;5033228;28;20448;-43
2021/04/12 11:58:09;;;;;;;4.93;4.53;;;12.70;44.30;;;;;;5036372;28;20829;-46
2021/04/12 12:00:57;;;;;;;4.33;3.93;;;12.80;43.70;;;;;;5032183;28;20478;-44
2021/04/12 12:03:40;;;;;;;4.70;4.30;;;12.80;43.60;;;;;;5023860;28;20447;-43
2021/04/12 12:06:35;;;;;;;5.17;3.67;;;12.80;42.70;;;;;;5039894;28;20486;-49
2021/04/12 12:09:03;;;;;;;5.40;4.07;;;12.90;42.50;;;;;;5038195;28;20444;-44
2021/04/12 12:11:50;;;;;;;4.60;3.80;;;13.10;42.00;;;;;;5030443;28;21061;-43
2021/04/12 12:15:07;;;;;;;6.33;4.37;;;13.20;43.70;;;;;;5042101;28;20432;-43
2021/04/12 12:17:40;;;;;;;4.27;3.97;;;13.40;45.30;;;;;;4986058;28;20486;-48
2021/04/12 12:20:17;;;;;;;4.70;3.90;;;13.60;42.00;;;;;;5038989;28;20435;-46
2021/04/12 12:22:58;;;;;;;4.73;3.63;;;13.80;41.70;;;;;;5043142;28;20456;-48
2021/04/12 12:25:53;;;;;;;5.73;3.63;;;13.80;39.20;;;;;;5041356;28;20901;-46
2021/04/12 12:28:36;;;;;;;4.10;3.70;;;13.70;38.00;;;;;;5025181;28;20478;-45
2021/04/12 12:31:36;;;;;;;4.53;4.13;;;13.50;38.40;;;;;;5037464;28;20444;-47
2021/04/12 12:34:20;;;;;;;3.53;3.33;;;13.70;38.40;;;;;;5034374;28;20462;-45
2021/04/12 12:37:11;;;;;;;5.00;4.60;;;14.00;39.90;;;;;;5036511;28;20497;-44
2021/04/12 12:39:50;;;;;;;4.67;3.63;;;14.40;38.70;;;;;;5039382;28;20450;-45
2021/04/12 12:42:37;;;;;;;3.60;3.30;;;14.50;38.10;;;;;;5021631;28;20450;-47
2021/04/12 12:45:12;;;;;;;4.83;3.60;;;14.60;39.40;;;;;;5032579;28;20445;-48
2021/04/12 12:47:43;;;;;;;4.27;3.97;;;14.50;38.80;;;;;;5039069;28;20502;-46
2021/04/12 12:50:14;;;;;;;4.53;4.07;;;14.40;38.80;;;;;;5040453;28;20436;-48
2021/04/12 12:52:49;;;;;;;4.00;3.70;;;14.60;39.10;;;;;;5042352;28;20547;-47
2021/04/12 12:55:42;;;;;;;4.00;3.67;;;14.70;38.40;;;;;;5044759;28;20437;-44
2021/04/12 12:58:21;;;;;;;4.10;3.80;;;14.70;38.00;;;;;;5029925;28;20432;-45
2021/04/12 13:00:52;;;;;;;3.90;3.60;;;14.70;37.20;;;;;;5042168;28;20438;-47
2021/04/12 13:03:37;;;;;;;8.87;3.73;;;14.70;37.60;;;;;;5037082;28;20443;-47
2021/04/12 13:06:24;;;;;;;3.50;3.20;;;14.80;36.80;;;;;;5043135;28;20922;-47
2021/04/12 13:08:53;;;;;;;5.20;4.23;;;14.80;37.00;;;;;;5037906;28;20443;-47
2021/04/12 13:11:42;;;;;;;3.73;3.20;;;14.70;37.10;;;;;;5045721;28;20554;-47
2021/04/12 13:14:16;;;;;;;5.43;3.17;;;14.70;35.70;;;;;;5044215;28;20439;-47
2021/04/12 13:16:44;;;;;;;4.20;3.03;;;14.80;35.70;;;;;;5034896;28;20443;-48
2021/04/12 13:19:10;;;;;;;3.70;3.37;;;14.80;35.10;;;;;;5047923;28;20466;-47
2021/04/12 13:21:40;;;;;;;4.57;3.40;;;14.80;35.30;;;;;;5022731;28;20471;-47
2021/04/12 13:24:26;;;;;;;4.20;3.80;;;14.80;35.60;;;;;;5046032;28;20419;-46
2021/04/12 13:26:55;;;;;;;3.90;3.60;;;14.80;36.40;;;;;;5040801;28;20438;-47
2021/04/12 13:29:31;;;;;;;3.60;3.27;;;14.80;35.60;;;;;;5043714;28;20446;-46
2021/04/12 13:32:10;;;;;;;4.03;2.83;;;14.90;35.20;;;;;;5028319;28;20475;-47
2021/04/12 13:34:49;;;;;;;3.30;3.00;;;14.80;35.10;;;;;;5037218;28;20450;-47
2021/04/12 13:37:14;;;;;;;2.70;2.50;;;14.80;35.00;;;;;;5046474;28;20959;-46
2021/04/12 13:39:44;;;;;;;3.97;2.70;;;14.80;34.50;;;;;;5037678;28;20447;-46
2021/04/12 13:42:33;;;;;;;1.67;1.50;;;14.50;33.20;;;;;;5038458;28;20189;-47
2021/04/12 13:45:08;;;;;;;4.80;1.87;;;14.60;34.60;;;;;;5037947;28;20428;-47
2021/04/12 13:47:57;;;;;;;2.20;2.00;;;14.60;34.10;;;;;;5039437;28;20437;-48
2021/04/12 13:50:30;;;;;;;3.57;2.10;;;14.30;34.50;;;;;;5043930;28;20943;-44
2021/04/12 13:53:16;;;;;;;2.43;2.23;;;14.20;35.10;;;;;;5039206;28;20505;-48
2021/04/12 13:55:55;;;;;;;4.80;2.50;;;14.40;34.80;;;;;;5041746;28;20930;-47
2021/04/12 13:58:32;;;;;;;2.30;2.10;;;14.50;34.00;;;;;;5034592;28;21098;-47
2021/04/12 14:01:11;;;;;;;3.90;1.90;;;14.80;34.40;;;;;;5030021;28;20966;-47
2021/04/12 14:03:43;;;;;;;2.13;1.93;;;14.90;33.50;;;;;;5038888;28;20493;-49
2021/04/12 14:06:22;;;;;;;2.07;1.97;;;15.00;32.40;;;;;;5034985;28;20951;-48
2021/04/12 14:09:22;;;;;;;2.73;2.03;;;14.90;30.00;;;;;;5038040;28;20525;-48
2021/04/12 14:11:58;;;;;;;1.80;1.70;;;14.80;30.60;;;;;;4962487;28;20512;-47
2021/04/12 14:14:59;;;;;;;2.27;2.07;;;14.50;31.30;;;;;;5032430;28;20451;-44
2021/04/12 14:17:30;;;;;;;2.37;2.13;;;14.70;32.10;;;;;;5031136;28;20816;-44
2021/04/12 14:20:42;;;;;;;2.00;1.60;;;14.50;31.90;;;;;;5015051;28;20444;-44
2021/04/12 14:23:26;;;;;;;4.03;2.50;;;14.60;32.10;;;;;;5016217;28;21324;-44
2021/04/12 14:26:00;;;;;;;2.10;1.90;;;14.10;31.50;;;;;;5027794;28;20951;-46
2021/04/12 14:28:32;;;;;;;2.10;1.87;;;14.00;32.30;;;;;;5025643;28;20447;-46
2021/04/12 14:31:05;;;;;;;2.90;2.17;;;14.00;32.90;;;;;;5035441;28;20533;-47
2021/04/12 14:33:42;;;;;;;2.60;2.03;;;14.00;33.50;;;;;;5032765;28;20875;-48